createdAt,value
2022-11-06T00:00:43.231Z,17.05
2022-11-06T00:03:44.970Z,17.15
2022-11-06T00:06:48.305Z,18.02
2022-11-06T00:09:49.641Z,19.10
2022-11-06T00:12:51.035Z,21.52
2022-11-06T00:15:52.344Z,18.45
2022-11-06T00:18:53.384Z,16.40
2022-11-06T00:21:54.513Z,16.92
2022-11-06T00:24:55.357Z,16.33
2022-11-06T00:27:56.414Z,15.07
2022-11-06T00:31:11.945Z,16.20
2022-11-06T00:34:12.802Z,16.83
2022-11-06T00:37:14.713Z,18.02
2022-11-06T00:40:15.722Z,17.58
2022-11-06T00:43:16.657Z,18.80
2022-11-06T00:46:19.160Z,19.63
2022-11-06T00:49:20.105Z,20.05
2022-11-06T00:52:20.809Z,18.83
2022-11-06T00:55:22.033Z,20.17
2022-11-06T00:58:22.823Z,19.17
2022-11-06T01:01:40.350Z,19.42
2022-11-06T01:04:41.276Z,20.77
2022-11-06T01:07:42.494Z,19.30
2022-11-06T01:10:43.291Z,18.27
2022-11-06T01:13:45.938Z,19.35
2022-11-06T01:16:47.112Z,17.63
2022-11-06T01:19:47.952Z,18.33
2022-11-06T01:22:48.760Z,17.52
2022-11-06T01:26:04.774Z,18.42
2022-11-06T01:29:09.000Z,17.67
2022-11-06T01:32:10.058Z,17.17
2022-11-06T01:35:11.000Z,16.40
2022-11-06T01:38:12.046Z,16.52
2022-11-06T01:41:16.539Z,17.30
2022-11-06T01:44:36.044Z,16.60
2022-11-06T01:47:37.109Z,16.77
2022-11-06T01:50:39.035Z,16.75
2022-11-06T01:53:41.392Z,18.73
2022-11-06T01:56:47.316Z,19.13
2022-11-06T01:59:52.511Z,16.45
2022-11-06T02:02:54.275Z,19.58
2022-11-06T02:05:57.289Z,22.05
2022-11-06T02:08:58.382Z,20.27
2022-11-06T02:12:36.606Z,21.27
2022-11-06T02:16:09.801Z,22.35
2022-11-06T02:19:42.328Z,20.70
2022-11-06T02:23:40.449Z,22.52
2022-11-06T02:27:34.024Z,22.15
2022-11-06T02:30:44.438Z,20.60
2022-11-06T02:33:53.470Z,20.38
2022-11-06T02:37:04.837Z,21.73
2022-11-06T02:40:11.740Z,21.58
2022-11-06T02:43:16.340Z,21.13
2022-11-06T02:46:43.698Z,21.00
2022-11-06T02:49:57.725Z,20.13
2022-11-06T02:53:04.389Z,20.40
2022-11-06T02:56:16.698Z,21.13
2022-11-06T02:59:33.142Z,21.83
2022-11-06T03:02:42.431Z,20.67
2022-11-06T03:06:12.370Z,20.52
2022-11-06T03:09:21.606Z,20.67
2022-11-06T03:12:54.806Z,20.58
2022-11-06T03:16:05.721Z,20.45
2022-11-06T03:19:30.306Z,18.38
2022-11-06T03:23:10.050Z,17.85
2022-11-06T03:26:18.266Z,19.13
2022-11-06T03:29:37.990Z,20.05
2022-11-06T03:32:53.235Z,20.15
2022-11-06T03:36:11.111Z,18.75
2022-11-06T03:39:19.577Z,19.58
2022-11-06T03:42:31.010Z,19.13
2022-11-06T03:45:35.090Z,20.48
2022-11-06T03:48:49.066Z,19.90
2022-11-06T03:52:00.430Z,24.48
2022-11-06T03:55:07.115Z,24.70
2022-11-06T03:58:18.769Z,28.20
2022-11-06T04:01:32.455Z,25.77
2022-11-06T04:04:53.377Z,20.55
2022-11-06T04:08:15.788Z,17.70
2022-11-06T04:11:42.756Z,19.30
2022-11-06T04:14:50.666Z,19.83
2022-11-06T04:17:51.635Z,21.23
2022-11-06T04:21:26.071Z,25.38
2022-11-06T04:25:29.983Z,26.33
2022-11-06T04:29:12.110Z,25.35
2022-11-06T04:32:43.219Z,24.33
2022-11-06T04:36:32.104Z,22.70
2022-11-06T04:39:58.291Z,22.60
2022-11-06T04:43:06.918Z,17.52
2022-11-06T04:46:13.764Z,22.27
2022-11-06T04:49:16.310Z,22.37
2022-11-06T04:52:24.846Z,16.35
2022-11-06T04:55:29.420Z,16.77
2022-11-06T04:58:30.263Z,14.75
2022-11-06T05:01:32.276Z,17.15
2022-11-06T05:04:33.912Z,16.25
2022-11-06T05:07:35.119Z,16.45
2022-11-06T05:10:36.003Z,14.18
2022-11-06T05:13:38.374Z,15.25
2022-11-06T05:16:39.533Z,14.13
2022-11-06T05:19:40.343Z,13.18
2022-11-06T05:23:01.208Z,14.40
2022-11-06T05:26:02.495Z,13.75
2022-11-06T05:29:03.736Z,14.48
2022-11-06T05:32:05.209Z,15.73
2022-11-06T05:35:06.822Z,13.68
2022-11-06T05:38:07.908Z,15.65
2022-11-06T05:41:08.990Z,15.63
2022-11-06T05:44:09.846Z,16.30
2022-11-06T05:47:10.580Z,15.95
2022-11-06T05:50:11.891Z,17.38
2022-11-06T05:53:12.841Z,15.30
2022-11-06T05:56:13.862Z,15.75
2022-11-06T05:59:14.624Z,16.85
2022-11-06T06:02:15.627Z,15.15
2022-11-06T06:05:17.807Z,16.73
2022-11-06T06:08:19.188Z,15.85
2022-11-06T06:11:19.964Z,16.33
2022-11-06T06:14:21.670Z,17.17
2022-11-06T06:17:23.035Z,17.67
2022-11-06T06:20:24.357Z,17.05
2022-11-06T06:23:25.388Z,17.00
2022-11-06T06:26:26.231Z,16.17
2022-11-06T06:29:27.004Z,16.08
2022-11-06T06:32:27.815Z,16.58
2022-11-06T06:35:28.735Z,15.82
2022-11-06T06:38:29.733Z,15.25
2022-11-06T06:41:30.892Z,14.15
2022-11-06T06:44:31.907Z,14.30
2022-11-06T06:47:32.760Z,12.40
2022-11-06T06:50:33.776Z,12.40
2022-11-06T06:53:36.214Z,13.07
2022-11-06T06:56:37.563Z,12.55
2022-11-06T06:59:38.580Z,12.57
2022-11-06T07:02:39.301Z,15.02
2022-11-06T07:05:41.428Z,15.10
2022-11-06T07:08:42.554Z,13.55
2022-11-06T07:11:43.858Z,13.63
2022-11-06T07:14:45.084Z,14.02
2022-11-06T07:17:45.909Z,12.68
2022-11-06T07:20:46.820Z,13.43
2022-11-06T07:25:31.209Z,12.50
2022-11-06T07:28:33.242Z,12.90
2022-11-06T07:31:34.288Z,13.25
2022-11-06T07:34:38.806Z,13.40
2022-11-06T07:37:39.650Z,11.45
2022-11-06T07:40:40.740Z,12.10
2022-11-06T07:43:42.965Z,12.57
2022-11-06T07:46:44.028Z,12.70
2022-11-06T07:49:50.581Z,12.38
2022-11-06T07:52:52.091Z,12.82
2022-11-06T07:55:55.764Z,12.35
2022-11-06T07:58:57.882Z,11.45
2022-11-06T08:01:58.771Z,11.70
2022-11-06T08:05:00.122Z,7.60
2022-11-06T08:08:00.959Z,8.48
2022-11-06T08:11:07.719Z,8.52
2022-11-06T08:14:08.644Z,7.65
2022-11-06T08:17:09.751Z,8.52
2022-11-06T08:20:11.040Z,9.40
2022-11-06T08:23:13.867Z,8.00
2022-11-06T08:26:14.966Z,8.82
2022-11-06T08:29:16.697Z,7.72
2022-11-06T08:32:18.004Z,6.88
2022-11-06T08:35:19.115Z,6.47
2022-11-06T08:38:19.909Z,5.93
2022-11-06T08:41:21.043Z,7.13
2022-11-06T08:44:23.865Z,7.20
2022-11-06T08:47:25.342Z,6.35
2022-11-06T08:50:25.960Z,6.00
2022-11-06T08:53:27.091Z,6.18
2022-11-06T08:56:28.343Z,5.65
2022-11-06T08:59:29.103Z,6.10
2022-11-06T09:02:29.961Z,5.63
2022-11-06T09:05:31.479Z,5.60
2022-11-06T09:08:32.767Z,5.85
2022-11-06T09:11:34.038Z,5.65
2022-11-06T09:14:35.423Z,5.55
2022-11-06T09:17:44.333Z,4.97
2022-11-06T09:20:45.065Z,5.07
2022-11-06T09:23:47.216Z,5.88
2022-11-06T09:26:48.263Z,5.78
2022-11-06T09:29:49.328Z,5.32
2022-11-06T09:32:54.635Z,4.90
2022-11-06T09:35:55.590Z,5.05
2022-11-06T09:38:57.041Z,4.88
2022-11-06T09:42:29.787Z,5.40
2022-11-06T09:45:33.966Z,5.88
2022-11-06T09:48:53.467Z,5.40
2022-11-06T09:52:35.822Z,4.80
2022-11-06T09:55:45.023Z,5.47
2022-11-06T09:58:48.249Z,7.97
2022-11-06T10:01:58.338Z,4.93
2022-11-06T10:05:26.031Z,4.75
2022-11-06T10:12:02.122Z,4.65
2022-11-06T10:15:22.722Z,5.45
2022-11-06T10:18:36.680Z,4.88
2022-11-06T10:22:09.560Z,4.97
2022-11-06T10:26:00.194Z,5.00
2022-11-06T10:29:38.766Z,5.03
2022-11-06T10:32:54.794Z,4.85
2022-11-06T10:36:18.269Z,5.07
2022-11-06T10:39:25.068Z,4.60
2022-11-06T10:42:38.362Z,4.40
2022-11-06T10:45:47.585Z,4.47
2022-11-06T10:49:00.769Z,4.32
2022-11-06T10:52:10.266Z,3.92
2022-11-06T10:56:20.952Z,3.85
2022-11-06T10:59:22.209Z,3.72
2022-11-06T11:02:30.293Z,3.83
2022-11-06T11:05:44.204Z,3.42
2022-11-06T11:08:47.663Z,3.60
2022-11-06T11:11:52.074Z,3.85
2022-11-06T11:15:14.910Z,3.40
2022-11-06T11:18:22.881Z,3.95
2022-11-06T11:21:27.893Z,3.08
2022-11-06T11:24:29.440Z,3.00
2022-11-06T11:27:37.454Z,3.50
2022-11-06T11:30:38.685Z,3.30
2022-11-06T11:33:53.261Z,3.67
2022-11-06T11:37:07.087Z,3.63
2022-11-06T11:40:36.379Z,3.80
2022-11-06T11:43:37.894Z,4.07
2022-11-06T11:46:54.406Z,3.55
2022-11-06T11:49:55.250Z,3.70
2022-11-06T11:53:19.132Z,4.78
2022-11-06T11:56:36.484Z,4.40
2022-11-06T11:59:55.340Z,4.95
2022-11-06T12:03:07.105Z,4.85
2022-11-06T12:06:13.253Z,4.18
2022-11-06T12:09:14.784Z,5.17
2022-11-06T12:12:24.934Z,4.90
2022-11-06T12:16:04.805Z,5.30
2022-11-06T12:19:09.398Z,5.50
2022-11-06T12:22:24.705Z,5.32
2022-11-06T12:25:41.371Z,5.72
2022-11-06T12:28:48.878Z,5.45
2022-11-06T12:32:03.929Z,5.57
2022-11-06T12:35:36.895Z,5.53
2022-11-06T12:38:59.441Z,6.30
2022-11-06T12:42:05.230Z,5.68
2022-11-06T12:45:13.042Z,5.78
2022-11-06T12:48:36.225Z,5.70
2022-11-06T12:52:27.054Z,5.90
2022-11-06T12:55:52.112Z,6.38
2022-11-06T12:58:55.717Z,5.68
2022-11-06T13:02:34.315Z,6.50
2022-11-06T13:06:23.386Z,5.97
2022-11-06T13:09:53.957Z,5.95
2022-11-06T13:13:38.160Z,5.82
2022-11-06T13:17:01.193Z,5.72
2022-11-06T13:20:27.045Z,5.60
2022-11-06T13:23:44.568Z,5.68
2022-11-06T13:27:09.620Z,6.40
2022-11-06T13:30:24.493Z,6.07
2022-11-06T13:33:39.485Z,6.00
2022-11-06T13:36:40.994Z,6.18
2022-11-06T13:39:48.247Z,6.68
2022-11-06T13:43:02.058Z,6.32
2022-11-06T13:46:31.306Z,6.68
2022-11-06T13:49:43.803Z,6.43
2022-11-06T13:53:00.329Z,7.32
2022-11-06T13:56:23.030Z,8.30
2022-11-06T13:59:58.121Z,6.75
2022-11-06T14:03:13.814Z,7.32
2022-11-06T14:06:37.422Z,7.60
2022-11-06T14:09:45.665Z,7.68
2022-11-06T14:12:50.076Z,6.80
2022-11-06T14:16:20.414Z,7.63
2022-11-06T14:19:21.396Z,7.35
2022-11-06T14:22:40.751Z,7.78
2022-11-06T14:25:41.895Z,8.23
2022-11-06T14:28:44.072Z,7.13
2022-11-06T14:32:41.328Z,7.40
2022-11-06T14:35:41.795Z,7.40
2022-11-06T14:38:43.103Z,7.43
2022-11-06T14:41:55.520Z,7.80
2022-11-06T14:45:02.749Z,8.50
2022-11-06T14:48:03.780Z,8.23
2022-11-06T14:51:09.823Z,8.05
2022-11-06T14:54:24.721Z,6.78
2022-11-06T14:57:48.183Z,7.20
2022-11-06T15:01:09.107Z,7.00
2022-11-06T15:04:13.107Z,6.90
2022-11-06T15:08:03.990Z,6.85
2022-11-06T15:10:59.300Z,5.88
2022-11-06T15:14:04.557Z,7.00
2022-11-06T15:17:16.653Z,7.15
2022-11-06T15:20:30.751Z,7.75
2022-11-06T15:23:53.377Z,6.85
2022-11-06T15:27:06.567Z,8.57
2022-11-06T15:30:15.420Z,8.52
2022-11-06T15:33:45.322Z,8.18
2022-11-06T15:36:55.280Z,7.70
2022-11-06T15:40:01.207Z,8.05
2022-11-06T15:43:24.692Z,8.70
2022-11-06T15:46:28.547Z,8.30
2022-11-06T15:49:29.986Z,8.40
2022-11-06T15:52:30.699Z,8.00
2022-11-06T15:55:36.813Z,8.70
2022-11-06T15:58:38.635Z,8.80
2022-11-06T16:01:42.291Z,8.55
2022-11-06T16:04:45.145Z,9.07
2022-11-06T16:07:48.601Z,9.82
2022-11-06T16:10:50.159Z,9.48
2022-11-06T16:13:51.226Z,9.93
2022-11-06T16:16:57.613Z,9.68
2022-11-06T16:20:02.132Z,9.90
2022-11-06T16:23:06.197Z,10.18
2022-11-06T16:26:13.954Z,9.45
2022-11-06T16:29:29.663Z,10.38
2022-11-06T16:32:39.774Z,10.55
2022-11-06T16:35:50.081Z,11.15
2022-11-06T16:39:18.216Z,10.82
2022-11-06T16:42:24.416Z,11.23
2022-11-06T16:45:25.226Z,10.65
2022-11-06T16:48:39.915Z,10.95
2022-11-06T16:51:40.543Z,10.32
2022-11-06T16:55:08.133Z,11.45
2022-11-06T16:58:17.475Z,10.35
2022-11-06T17:01:20.798Z,11.23
2022-11-06T17:04:26.470Z,12.02
2022-11-06T17:07:27.524Z,11.35
2022-11-06T17:10:42.036Z,12.27
2022-11-06T17:13:45.508Z,11.55
2022-11-06T17:16:57.900Z,13.10
2022-11-06T17:19:58.836Z,14.30
2022-11-06T17:23:00.206Z,15.00
2022-11-06T17:26:07.920Z,13.90
2022-11-06T17:29:11.348Z,14.32
2022-11-06T17:32:12.042Z,15.25
2022-11-06T17:35:12.780Z,14.13
2022-11-06T17:38:15.004Z,12.80
2022-11-06T17:41:32.525Z,13.63
2022-11-06T17:44:33.410Z,24.63
2022-11-06T17:47:34.258Z,39.55
2022-11-06T17:50:54.980Z,67.82
2022-11-06T17:53:56.024Z,47.50
2022-11-06T17:56:58.705Z,30.25
2022-11-06T17:59:59.673Z,24.08
2022-11-06T18:03:02.303Z,19.40
2022-11-06T18:06:04.318Z,16.02
2022-11-06T18:09:08.185Z,16.40
2022-11-06T18:12:13.628Z,18.67
2022-11-06T18:15:14.599Z,17.10
2022-11-06T18:18:15.677Z,20.60
2022-11-06T18:21:17.374Z,18.92
2022-11-06T18:24:18.346Z,19.70
2022-11-06T18:27:19.496Z,19.63
2022-11-06T18:30:20.799Z,19.27
2022-11-06T18:33:22.022Z,19.27
2022-11-06T18:36:23.218Z,18.70
2022-11-06T18:39:24.148Z,19.65
2022-11-06T18:42:25.015Z,19.00
2022-11-06T18:45:25.684Z,20.15
2022-11-06T18:48:26.834Z,21.55
2022-11-06T18:51:35.689Z,19.08
2022-11-06T18:54:37.008Z,17.35
2022-11-06T18:57:38.183Z,17.60
2022-11-06T19:00:39.022Z,18.60
2022-11-06T19:03:41.564Z,18.15
2022-11-06T19:06:42.729Z,17.33
2022-11-06T19:09:43.537Z,18.48
2022-11-06T19:12:44.290Z,18.80
2022-11-06T19:15:45.508Z,16.45
2022-11-06T19:22:02.389Z,14.70
2022-11-06T19:25:04.350Z,20.05
2022-11-06T19:28:05.406Z,17.52
2022-11-06T19:31:06.741Z,16.45
2022-11-06T19:34:08.979Z,15.45
2022-11-06T19:37:10.003Z,16.23
2022-11-06T19:40:11.590Z,14.07
2022-11-06T19:43:13.068Z,15.32
2022-11-06T19:46:23.400Z,14.13
2022-11-06T19:49:26.074Z,14.65
2022-11-06T19:52:42.860Z,14.35
2022-11-06T19:55:45.519Z,14.75
2022-11-06T19:58:47.848Z,15.20
2022-11-06T20:01:50.189Z,15.73
2022-11-06T20:04:51.161Z,15.73
2022-11-06T20:07:52.438Z,15.07
2022-11-06T20:10:53.398Z,15.50
2022-11-06T20:13:54.255Z,15.10
2022-11-06T20:16:55.816Z,15.45
2022-11-06T20:19:56.685Z,17.35
2022-11-06T20:22:57.372Z,18.10
2022-11-06T20:25:58.612Z,17.58
2022-11-06T20:28:59.869Z,16.55
2022-11-06T20:32:00.908Z,15.77
2022-11-06T20:35:02.168Z,18.48
2022-11-06T20:38:03.368Z,19.27
2022-11-06T20:41:04.264Z,18.23
2022-11-06T20:44:05.145Z,19.33
2022-11-06T20:47:06.330Z,19.38
2022-11-06T20:50:07.178Z,18.77
2022-11-06T20:53:07.929Z,19.35
2022-11-06T20:56:12.870Z,20.48
2022-11-06T20:59:14.735Z,17.75
2022-11-06T21:02:15.761Z,17.20
2022-11-06T21:05:16.994Z,10.13
2022-11-06T21:08:17.854Z,8.13
2022-11-06T21:11:26.085Z,6.57
2022-11-06T21:14:27.199Z,6.45
2022-11-06T21:17:28.150Z,9.52
2022-11-06T21:20:28.958Z,11.65
2022-11-06T21:23:30.137Z,13.10
2022-11-06T21:26:36.167Z,12.68
2022-11-06T21:29:36.973Z,11.02
2022-11-06T21:32:37.772Z,9.50
2022-11-06T21:35:38.810Z,9.60
2022-11-06T21:38:39.893Z,9.98
2022-11-06T21:41:41.229Z,9.15
2022-11-06T21:44:42.302Z,10.50
2022-11-06T21:47:42.995Z,14.18
2022-11-06T21:50:43.747Z,13.43
2022-11-06T21:54:03.556Z,13.27
2022-11-06T21:57:04.252Z,11.38
2022-11-06T22:00:05.776Z,10.20
2022-11-06T22:03:13.380Z,13.30
2022-11-06T22:06:20.479Z,11.95
2022-11-06T22:09:25.236Z,11.77
2022-11-06T22:12:26.388Z,11.93
2022-11-06T22:15:27.499Z,11.27
2022-11-06T22:18:29.356Z,12.35
2022-11-06T22:21:31.075Z,9.80
2022-11-06T22:24:31.979Z,7.45
2022-11-06T22:27:36.816Z,7.18
2022-11-06T22:30:40.337Z,6.88
2022-11-06T22:33:41.250Z,6.53
2022-11-06T22:36:42.126Z,7.03
2022-11-06T22:39:43.426Z,6.20
2022-11-06T22:42:47.177Z,5.32
2022-11-06T22:45:50.563Z,4.50
2022-11-06T22:48:52.618Z,4.30
2022-11-06T22:51:53.811Z,4.13
2022-11-06T22:54:54.903Z,3.60
2022-11-06T22:57:55.690Z,3.70
2022-11-06T23:00:58.209Z,3.72
2022-11-06T23:04:04.934Z,3.50
2022-11-06T23:07:06.092Z,3.25
2022-11-06T23:10:08.372Z,3.30
2022-11-06T23:13:10.941Z,3.30
2022-11-06T23:16:43.206Z,3.80
2022-11-06T23:19:44.145Z,3.58
2022-11-06T23:22:45.523Z,3.65
2022-11-06T23:25:46.369Z,3.60
2022-11-06T23:28:47.293Z,4.03
2022-11-06T23:31:48.485Z,3.70
2022-11-06T23:34:51.521Z,3.22
2022-11-06T23:37:52.651Z,2.85
2022-11-06T23:40:53.826Z,3.20
2022-11-06T23:43:56.254Z,4.78
2022-11-06T23:46:58.150Z,6.57
2022-11-06T23:49:59.572Z,7.40
2022-11-06T23:53:00.255Z,6.97
2022-11-06T23:56:10.582Z,8.35
2022-11-06T23:59:12.981Z,9.55
